sensor_id;sensor_type;location;lat;lon;timestamp;P1;durP1;ratioP1;P2;durP2;ratioP2
72037;SDS011;59900;50.788;12.904;2024-03-23T00:55:36;10.18;;;5.72;;
72037;SDS011;59900;50.788;12.904;2024-03-23T00:58:01;11.47;;;5.53;;
72037;SDS011;59900;50.788;12.904;2024-03-23T01:00:26;11.93;;;6.00;;
72037;SDS011;59900;50.788;12.904;2024-03-23T01:02:51;9.90;;;5.73;;
72037;SDS011;59900;50.788;12.904;2024-03-23T01:05:17;10.73;;;5.80;;
72037;SDS011;59900;50.788;12.904;2024-03-23T01:07:42;13.57;;;6.07;;
72037;SDS011;59900;50.788;12.904;2024-03-23T01:10:07;10.90;;;5.53;;
72037;SDS011;59900;50.788;12.904;2024-03-23T01:12:32;11.83;;;5.70;;
72037;SDS011;59900;50.788;12.904;2024-03-23T01:14:58;11.73;;;5.87;;
72037;SDS011;59900;50.788;12.904;2024-03-23T01:17:23;10.40;;;5.70;;
72037;SDS011;59900;50.788;12.904;2024-03-23T01:19:48;12.23;;;5.63;;
72037;SDS011;59900;50.788;12.904;2024-03-23T01:22:14;12.32;;;6.68;;
72037;SDS011;59900;50.788;12.904;2024-03-23T01:24:39;11.73;;;6.30;;
72037;SDS011;59900;50.788;12.904;2024-03-23T01:27:04;10.83;;;5.87;;
72037;SDS011;59900;50.788;12.904;2024-03-23T01:29:30;10.53;;;6.00;;
72037;SDS011;59900;50.788;12.904;2024-03-23T01:31:55;13.30;;;5.93;;
72037;SDS011;59900;50.788;12.904;2024-03-23T01:34:21;10.88;;;6.20;;
72037;SDS011;59900;50.788;12.904;2024-03-23T01:36:46;17.77;;;6.10;;
72037;SDS011;59900;50.788;12.904;2024-03-23T01:39:12;12.27;;;6.17;;
72037;SDS011;59900;50.788;12.904;2024-03-23T01:41:39;9.90;;;6.03;;
72037;SDS011;59900;50.788;12.904;2024-03-23T01:44:07;12.00;;;5.90;;
72037;SDS011;59900;50.788;12.904;2024-03-23T01:46:33;10.90;;;6.10;;
72037;SDS011;59900;50.788;12.904;2024-03-23T01:48:58;9.95;;;5.57;;
72037;SDS011;59900;50.788;12.904;2024-03-23T01:51:24;11.47;;;5.87;;
72037;SDS011;59900;50.788;12.904;2024-03-23T01:53:49;10.95;;;5.38;;
72037;SDS011;59900;50.788;12.904;2024-03-23T01:56:15;11.20;;;6.17;;
72037;SDS011;59900;50.788;12.904;2024-03-23T01:58:40;11.93;;;5.97;;
72037;SDS011;59900;50.788;12.904;2024-03-23T02:01:06;11.60;;;5.87;;
72037;SDS011;59900;50.788;12.904;2024-03-23T02:03:31;12.47;;;5.50;;
72037;SDS011;59900;50.788;12.904;2024-03-23T02:05:56;12.73;;;5.70;;
72037;SDS011;59900;50.788;12.904;2024-03-23T02:08:22;10.07;;;5.60;;
72037;SDS011;59900;50.788;12.904;2024-03-23T02:10:48;12.55;;;6.22;;
72037;SDS011;59900;50.788;12.904;2024-03-23T02:13:14;14.90;;;5.85;;
72037;SDS011;59900;50.788;12.904;2024-03-23T02:15:40;11.80;;;6.00;;
72037;SDS011;59900;50.788;12.904;2024-03-23T02:18:06;10.47;;;5.67;;
72037;SDS011;59900;50.788;12.904;2024-03-23T02:20:32;11.05;;;6.05;;
72037;SDS011;59900;50.788;12.904;2024-03-23T02:22:57;10.73;;;6.20;;
72037;SDS011;59900;50.788;12.904;2024-03-23T02:25:23;12.50;;;6.60;;
72037;SDS011;59900;50.788;12.904;2024-03-23T02:27:48;10.20;;;6.10;;
72037;SDS011;59900;50.788;12.904;2024-03-23T02:30:13;12.30;;;6.17;;
72037;SDS011;59900;50.788;12.904;2024-03-23T02:32:38;10.70;;;5.33;;
72037;SDS011;59900;50.788;12.904;2024-03-23T02:35:04;11.80;;;6.93;;
72037;SDS011;59900;50.788;12.904;2024-03-23T02:37:29;12.60;;;6.60;;
72037;SDS011;59900;50.788;12.904;2024-03-23T02:39:55;12.60;;;6.17;;
72037;SDS011;59900;50.788;12.904;2024-03-23T02:42:20;10.30;;;5.77;;
72037;SDS011;59900;50.788;12.904;2024-03-23T02:44:45;10.73;;;6.23;;
72037;SDS011;59900;50.788;12.904;2024-03-23T02:47:11;12.20;;;5.80;;
72037;SDS011;59900;50.788;12.904;2024-03-23T02:49:36;11.10;;;6.33;;
72037;SDS011;59900;50.788;12.904;2024-03-23T02:52:02;11.45;;;6.30;;
72037;SDS011;59900;50.788;12.904;2024-03-23T02:54:27;13.10;;;6.63;;
72037;SDS011;59900;50.788;12.904;2024-03-23T02:56:52;13.47;;;6.83;;
72037;SDS011;59900;50.788;12.904;2024-03-23T02:59:18;13.63;;;6.30;;
72037;SDS011;59900;50.788;12.904;2024-03-23T03:01:43;10.40;;;6.10;;
72037;SDS011;59900;50.788;12.904;2024-03-23T03:04:08;12.67;;;6.07;;
72037;SDS011;59900;50.788;12.904;2024-03-23T03:06:33;12.53;;;6.80;;
72037;SDS011;59900;50.788;12.904;2024-03-23T03:08:58;12.93;;;6.53;;
72037;SDS011;59900;50.788;12.904;2024-03-23T03:11:24;11.97;;;6.57;;
72037;SDS011;59900;50.788;12.904;2024-03-23T03:13:49;13.17;;;6.77;;
72037;SDS011;59900;50.788;12.904;2024-03-23T03:16:14;15.40;;;7.00;;
72037;SDS011;59900;50.788;12.904;2024-03-23T03:18:39;13.77;;;7.60;;
72037;SDS011;59900;50.788;12.904;2024-03-23T03:21:05;13.50;;;6.82;;
72037;SDS011;59900;50.788;12.904;2024-03-23T03:23:35;16.35;;;7.28;;
72037;SDS011;59900;50.788;12.904;2024-03-23T03:26:01;13.73;;;6.57;;
72037;SDS011;59900;50.788;12.904;2024-03-23T03:28:26;16.10;;;7.60;;
72037;SDS011;59900;50.788;12.904;2024-03-23T03:30:55;16.42;;;7.60;;
72037;SDS011;59900;50.788;12.904;2024-03-23T03:33:20;16.77;;;7.90;;
72037;SDS011;59900;50.788;12.904;2024-03-23T03:35:46;16.17;;;8.13;;
72037;SDS011;59900;50.788;12.904;2024-03-23T03:38:11;18.13;;;8.63;;
72037;SDS011;59900;50.788;12.904;2024-03-23T03:40:36;19.63;;;8.57;;
72037;SDS011;59900;50.788;12.904;2024-03-23T03:43:01;17.40;;;8.93;;
72037;SDS011;59900;50.788;12.904;2024-03-23T03:45:26;16.37;;;7.93;;
72037;SDS011;59900;50.788;12.904;2024-03-23T03:47:52;18.50;;;8.20;;
72037;SDS011;59900;50.788;12.904;2024-03-23T03:50:17;18.47;;;8.83;;
72037;SDS011;59900;50.788;12.904;2024-03-23T03:52:42;16.60;;;8.50;;
72037;SDS011;59900;50.788;12.904;2024-03-23T03:55:12;16.77;;;8.90;;
72037;SDS011;59900;50.788;12.904;2024-03-23T03:57:38;17.55;;;8.20;;
72037;SDS011;59900;50.788;12.904;2024-03-23T04:00:03;15.33;;;7.83;;
72037;SDS011;59900;50.788;12.904;2024-03-23T04:02:29;16.00;;;7.47;;
72037;SDS011;59900;50.788;12.904;2024-03-23T04:04:54;16.50;;;7.73;;
72037;SDS011;59900;50.788;12.904;2024-03-23T04:07:20;17.70;;;8.53;;
72037;SDS011;59900;50.788;12.904;2024-03-23T04:09:47;16.63;;;8.00;;
72037;SDS011;59900;50.788;12.904;2024-03-23T04:12:12;16.57;;;8.10;;
72037;SDS011;59900;50.788;12.904;2024-03-23T04:14:38;18.63;;;8.43;;
72037;SDS011;59900;50.788;12.904;2024-03-23T04:17:03;17.97;;;7.77;;
72037;SDS011;59900;50.788;12.904;2024-03-23T04:19:28;17.93;;;8.50;;
72037;SDS011;59900;50.788;12.904;2024-03-23T04:21:54;19.40;;;8.50;;
72037;SDS011;59900;50.788;12.904;2024-03-23T04:24:19;17.47;;;8.73;;
72037;SDS011;59900;50.788;12.904;2024-03-23T04:26:46;18.05;;;8.00;;
72037;SDS011;59900;50.788;12.904;2024-03-23T04:29:11;17.77;;;8.53;;
72037;SDS011;59900;50.788;12.904;2024-03-23T04:31:37;21.90;;;9.40;;
72037;SDS011;59900;50.788;12.904;2024-03-23T04:34:02;19.13;;;9.00;;
72037;SDS011;59900;50.788;12.904;2024-03-23T04:36:28;21.70;;;9.40;;
72037;SDS011;59900;50.788;12.904;2024-03-23T04:38:53;18.43;;;9.23;;
72037;SDS011;59900;50.788;12.904;2024-03-23T04:41:19;21.87;;;8.40;;
72037;SDS011;59900;50.788;12.904;2024-03-23T04:43:44;20.27;;;9.53;;
72037;SDS011;59900;50.788;12.904;2024-03-23T04:46:09;19.48;;;9.45;;
72037;SDS011;59900;50.788;12.904;2024-03-23T04:48:35;22.27;;;9.30;;
72037;SDS011;59900;50.788;12.904;2024-03-23T04:51:01;20.37;;;9.90;;
72037;SDS011;59900;50.788;12.904;2024-03-23T04:53:26;23.83;;;10.60;;
72037;SDS011;59900;50.788;12.904;2024-03-23T04:55:55;23.07;;;9.10;;
72037;SDS011;59900;50.788;12.904;2024-03-23T04:58:22;21.00;;;9.93;;
72037;SDS011;59900;50.788;12.904;2024-03-23T05:00:48;19.42;;;9.05;;
72037;SDS011;59900;50.788;12.904;2024-03-23T05:03:13;22.90;;;10.20;;
72037;SDS011;59900;50.788;12.904;2024-03-23T05:05:38;20.57;;;8.83;;
72037;SDS011;59900;50.788;12.904;2024-03-23T05:08:04;20.83;;;9.07;;
72037;SDS011;59900;50.788;12.904;2024-03-23T05:10:30;17.33;;;8.88;;
72037;SDS011;59900;50.788;12.904;2024-03-23T05:12:56;16.98;;;7.97;;
72037;SDS011;59900;50.788;12.904;2024-03-23T05:15:21;18.93;;;8.33;;
72037;SDS011;59900;50.788;12.904;2024-03-23T05:17:47;19.80;;;8.43;;
72037;SDS011;59900;50.788;12.904;2024-03-23T05:20:12;19.60;;;8.87;;
72037;SDS011;59900;50.788;12.904;2024-03-23T05:22:39;18.27;;;8.75;;
72037;SDS011;59900;50.788;12.904;2024-03-23T05:25:04;20.98;;;9.13;;
72037;SDS011;59900;50.788;12.904;2024-03-23T05:27:31;20.33;;;9.47;;
72037;SDS011;59900;50.788;12.904;2024-03-23T05:29:57;18.95;;;9.10;;
72037;SDS011;59900;50.788;12.904;2024-03-23T05:32:23;17.80;;;8.47;;
72037;SDS011;59900;50.788;12.904;2024-03-23T05:34:49;16.80;;;8.67;;
72037;SDS011;59900;50.788;12.904;2024-03-23T05:37:15;18.98;;;8.30;;
72037;SDS011;59900;50.788;12.904;2024-03-23T05:39:40;20.23;;;9.60;;
72037;SDS011;59900;50.788;12.904;2024-03-23T05:42:05;24.87;;;10.17;;
72037;SDS011;59900;50.788;12.904;2024-03-23T05:44:31;23.40;;;10.37;;
72037;SDS011;59900;50.788;12.904;2024-03-23T05:46:56;20.60;;;9.97;;
72037;SDS011;59900;50.788;12.904;2024-03-23T05:49:21;18.23;;;7.90;;
72037;SDS011;59900;50.788;12.904;2024-03-23T05:51:46;20.57;;;8.77;;
72037;SDS011;59900;50.788;12.904;2024-03-23T05:54:12;20.77;;;8.83;;
72037;SDS011;59900;50.788;12.904;2024-03-23T05:56:37;18.67;;;8.73;;
72037;SDS011;59900;50.788;12.904;2024-03-23T05:59:02;19.60;;;8.93;;
72037;SDS011;59900;50.788;12.904;2024-03-23T06:01:28;16.70;;;8.33;;
72037;SDS011;59900;50.788;12.904;2024-03-23T06:03:54;17.13;;;8.13;;
72037;SDS011;59900;50.788;12.904;2024-03-23T06:06:19;14.53;;;7.47;;
72037;SDS011;59900;50.788;12.904;2024-03-23T06:08:44;16.80;;;7.80;;
72037;SDS011;59900;50.788;12.904;2024-03-23T06:11:10;16.73;;;8.07;;
72037;SDS011;59900;50.788;12.904;2024-03-23T06:13:35;16.30;;;8.00;;
72037;SDS011;59900;50.788;12.904;2024-03-23T06:16:01;14.10;;;7.00;;
72037;SDS011;59900;50.788;12.904;2024-03-23T06:18:26;14.27;;;7.35;;
72037;SDS011;59900;50.788;12.904;2024-03-23T06:20:52;18.02;;;7.95;;
72037;SDS011;59900;50.788;12.904;2024-03-23T06:23:17;17.83;;;8.60;;
72037;SDS011;59900;50.788;12.904;2024-03-23T06:25:45;16.57;;;8.47;;
72037;SDS011;59900;50.788;12.904;2024-03-23T06:28:10;16.13;;;8.07;;
72037;SDS011;59900;50.788;12.904;2024-03-23T06:30:36;15.52;;;7.57;;
72037;SDS011;59900;50.788;12.904;2024-03-23T06:33:01;18.30;;;8.03;;
72037;SDS011;59900;50.788;12.904;2024-03-23T06:35:26;16.43;;;9.23;;
72037;SDS011;59900;50.788;12.904;2024-03-23T06:37:51;16.73;;;7.20;;
72037;SDS011;59900;50.788;12.904;2024-03-23T06:40:17;16.40;;;8.40;;
72037;SDS011;59900;50.788;12.904;2024-03-23T06:42:42;15.30;;;7.83;;
72037;SDS011;59900;50.788;12.904;2024-03-23T06:45:08;14.70;;;7.77;;
72037;SDS011;59900;50.788;12.904;2024-03-23T06:47:33;15.83;;;7.83;;
72037;SDS011;59900;50.788;12.904;2024-03-23T06:49:59;16.47;;;8.63;;
72037;SDS011;59900;50.788;12.904;2024-03-23T06:52:27;15.30;;;7.90;;
72037;SDS011;59900;50.788;12.904;2024-03-23T06:54:52;12.85;;;7.53;;
72037;SDS011;59900;50.788;12.904;2024-03-23T06:57:18;16.20;;;7.50;;
72037;SDS011;59900;50.788;12.904;2024-03-23T06:59:43;14.47;;;6.83;;
72037;SDS011;59900;50.788;12.904;2024-03-23T07:02:08;12.83;;;6.70;;
72037;SDS011;59900;50.788;12.904;2024-03-23T07:04:34;11.63;;;6.70;;
72037;SDS011;59900;50.788;12.904;2024-03-23T07:06:59;13.80;;;7.03;;
72037;SDS011;59900;50.788;12.904;2024-03-23T07:09:25;13.53;;;6.00;;
72037;SDS011;59900;50.788;12.904;2024-03-23T07:11:53;13.20;;;6.87;;
72037;SDS011;59900;50.788;12.904;2024-03-23T07:14:19;14.48;;;6.50;;
72037;SDS011;59900;50.788;12.904;2024-03-23T07:16:44;15.07;;;6.93;;
72037;SDS011;59900;50.788;12.904;2024-03-23T07:19:10;14.40;;;6.93;;
72037;SDS011;59900;50.788;12.904;2024-03-23T07:21:35;11.67;;;6.60;;
72037;SDS011;59900;50.788;12.904;2024-03-23T07:24:00;15.17;;;6.63;;
72037;SDS011;59900;50.788;12.904;2024-03-23T07:26:25;12.07;;;6.57;;
72037;SDS011;59900;50.788;12.904;2024-03-23T07:28:51;13.07;;;6.17;;
72037;SDS011;59900;50.788;12.904;2024-03-23T07:31:17;11.63;;;6.20;;
72037;SDS011;59900;50.788;12.904;2024-03-23T07:33:46;11.70;;;6.57;;
72037;SDS011;59900;50.788;12.904;2024-03-23T07:36:13;13.25;;;6.65;;
72037;SDS011;59900;50.788;12.904;2024-03-23T07:38:42;13.90;;;6.60;;
72037;SDS011;59900;50.788;12.904;2024-03-23T07:41:10;11.77;;;6.50;;
72037;SDS011;59900;50.788;12.904;2024-03-23T07:43:37;12.07;;;6.25;;
72037;SDS011;59900;50.788;12.904;2024-03-23T07:46:03;12.75;;;5.63;;
72037;SDS011;59900;50.788;12.904;2024-03-23T07:48:29;11.57;;;5.40;;
72037;SDS011;59900;50.788;12.904;2024-03-23T07:51:08;11.32;;;6.43;;
72037;SDS011;59900;50.788;12.904;2024-03-23T07:53:38;12.48;;;6.32;;
72037;SDS011;59900;50.788;12.904;2024-03-23T07:58:32;13.60;;;6.18;;
72037;SDS011;59900;50.788;12.904;2024-03-23T08:01:05;13.63;;;6.00;;
72037;SDS011;59900;50.788;12.904;2024-03-23T08:03:37;12.23;;;6.22;;
72037;SDS011;59900;50.788;12.904;2024-03-23T08:06:10;13.88;;;7.40;;
72037;SDS011;59900;50.788;12.904;2024-03-23T08:08:37;12.43;;;6.90;;
72037;SDS011;59900;50.788;12.904;2024-03-23T08:11:03;13.75;;;7.47;;
72037;SDS011;59900;50.788;12.904;2024-03-23T08:13:29;12.07;;;7.07;;
72037;SDS011;59900;50.788;12.904;2024-03-23T08:15:57;13.37;;;7.20;;
72037;SDS011;59900;50.788;12.904;2024-03-23T08:18:24;12.63;;;7.10;;
72037;SDS011;59900;50.788;12.904;2024-03-23T08:20:56;12.10;;;7.00;;
72037;SDS011;59900;50.788;12.904;2024-03-23T08:23:21;15.10;;;7.13;;
72037;SDS011;59900;50.788;12.904;2024-03-23T08:25:47;15.50;;;8.07;;
72037;SDS011;59900;50.788;12.904;2024-03-23T08:28:12;14.03;;;6.97;;
72037;SDS011;59900;50.788;12.904;2024-03-23T08:30:37;12.73;;;6.82;;
72037;SDS011;59900;50.788;12.904;2024-03-23T08:33:03;12.40;;;6.90;;
72037;SDS011;59900;50.788;12.904;2024-03-23T08:35:28;14.47;;;7.60;;
72037;SDS011;59900;50.788;12.904;2024-03-23T08:37:54;15.73;;;6.75;;
72037;SDS011;59900;50.788;12.904;2024-03-23T08:40:19;13.63;;;7.20;;
72037;SDS011;59900;50.788;12.904;2024-03-23T08:42:45;13.53;;;7.40;;
72037;SDS011;59900;50.788;12.904;2024-03-23T08:45:10;14.90;;;7.90;;
72037;SDS011;59900;50.788;12.904;2024-03-23T08:47:35;14.63;;;7.37;;
72037;SDS011;59900;50.788;12.904;2024-03-23T08:50:01;15.10;;;7.20;;
72037;SDS011;59900;50.788;12.904;2024-03-23T08:52:26;15.52;;;7.13;;
72037;SDS011;59900;50.788;12.904;2024-03-23T08:54:53;12.80;;;7.23;;
72037;SDS011;59900;50.788;12.904;2024-03-23T08:57:18;13.03;;;7.40;;
72037;SDS011;59900;50.788;12.904;2024-03-23T08:59:44;12.73;;;6.80;;
72037;SDS011;59900;50.788;12.904;2024-03-23T09:02:09;14.30;;;7.20;;
72037;SDS011;59900;50.788;12.904;2024-03-23T09:04:34;10.57;;;5.40;;
72037;SDS011;59900;50.788;12.904;2024-03-23T09:07:00;9.73;;;4.75;;
72037;SDS011;59900;50.788;12.904;2024-03-23T09:09:25;7.40;;;3.70;;
72037;SDS011;59900;50.788;12.904;2024-03-23T09:11:51;7.00;;;3.00;;
72037;SDS011;59900;50.788;12.904;2024-03-23T09:14:16;4.90;;;2.70;;
72037;SDS011;59900;50.788;12.904;2024-03-23T09:16:41;4.47;;;2.30;;
72037;SDS011;59900;50.788;12.904;2024-03-23T09:19:06;4.47;;;1.63;;
72037;SDS011;59900;50.788;12.904;2024-03-23T09:21:32;2.58;;;1.48;;
72037;SDS011;59900;50.788;12.904;2024-03-23T09:23:57;2.93;;;1.50;;
72037;SDS011;59900;50.788;12.904;2024-03-23T09:26:23;3.30;;;2.00;;
72037;SDS011;59900;50.788;12.904;2024-03-23T09:28:51;7.17;;;1.93;;
72037;SDS011;59900;50.788;12.904;2024-03-23T09:31:16;2.65;;;1.48;;
72037;SDS011;59900;50.788;12.904;2024-03-23T09:33:42;2.97;;;1.50;;
72037;SDS011;59900;50.788;12.904;2024-03-23T09:36:08;5.43;;;1.63;;
72037;SDS011;59900;50.788;12.904;2024-03-23T09:38:34;6.05;;;2.20;;
72037;SDS011;59900;50.788;12.904;2024-03-23T09:40:59;3.03;;;1.60;;
72037;SDS011;59900;50.788;12.904;2024-03-23T09:43:25;3.80;;;1.67;;
72037;SDS011;59900;50.788;12.904;2024-03-23T09:45:51;3.73;;;1.90;;
72037;SDS011;59900;50.788;12.904;2024-03-23T09:48:17;4.13;;;2.10;;
72037;SDS011;59900;50.788;12.904;2024-03-23T09:50:43;2.87;;;1.67;;
72037;SDS011;59900;50.788;12.904;2024-03-23T09:53:12;4.97;;;1.67;;
72037;SDS011;59900;50.788;12.904;2024-03-23T09:55:39;2.28;;;1.30;;
72037;SDS011;59900;50.788;12.904;2024-03-23T09:58:06;3.35;;;1.40;;
72037;SDS011;59900;50.788;12.904;2024-03-23T10:00:32;2.50;;;1.37;;
72037;SDS011;59900;50.788;12.904;2024-03-23T10:02:58;2.08;;;1.40;;
72037;SDS011;59900;50.788;12.904;2024-03-23T10:05:26;3.42;;;1.80;;
72037;SDS011;59900;50.788;12.904;2024-03-23T10:07:52;2.07;;;1.53;;
72037;SDS011;59900;50.788;12.904;2024-03-23T10:10:18;2.90;;;1.48;;
72037;SDS011;59900;50.788;12.904;2024-03-23T10:12:47;1.80;;;1.20;;
72037;SDS011;59900;50.788;12.904;2024-03-23T10:15:21;3.50;;;1.80;;
72037;SDS011;59900;50.788;12.904;2024-03-23T10:17:48;2.42;;;1.50;;
72037;SDS011;59900;50.788;12.904;2024-03-23T10:20:17;2.67;;;1.50;;
72037;SDS011;59900;50.788;12.904;2024-03-23T10:22:44;2.30;;;1.50;;
72037;SDS011;59900;50.788;12.904;2024-03-23T10:25:10;2.53;;;1.40;;
72037;SDS011;59900;50.788;12.904;2024-03-23T10:27:37;3.08;;;1.42;;
72037;SDS011;59900;50.788;12.904;2024-03-23T10:30:09;3.90;;;2.00;;
72037;SDS011;59900;50.788;12.904;2024-03-23T10:32:35;4.68;;;2.70;;
72037;SDS011;59900;50.788;12.904;2024-03-23T10:35:14;3.63;;;1.90;;
72037;SDS011;59900;50.788;12.904;2024-03-23T10:37:44;4.35;;;2.50;;
72037;SDS011;59900;50.788;12.904;2024-03-23T10:40:11;4.13;;;2.20;;
72037;SDS011;59900;50.788;12.904;2024-03-23T10:42:37;5.68;;;2.40;;
72037;SDS011;59900;50.788;12.904;2024-03-23T10:45:06;5.35;;;2.53;;
72037;SDS011;59900;50.788;12.904;2024-03-23T10:47:34;4.30;;;1.90;;
72037;SDS011;59900;50.788;12.904;2024-03-23T10:50:01;3.20;;;1.90;;
72037;SDS011;59900;50.788;12.904;2024-03-23T10:52:27;3.83;;;1.87;;
72037;SDS011;59900;50.788;12.904;2024-03-23T10:54:53;4.05;;;2.15;;
72037;SDS011;59900;50.788;12.904;2024-03-23T10:57:21;4.60;;;2.30;;
72037;SDS011;59900;50.788;12.904;2024-03-23T10:59:52;3.90;;;1.93;;
72037;SDS011;59900;50.788;12.904;2024-03-23T11:02:20;3.30;;;1.67;;
72037;SDS011;59900;50.788;12.904;2024-03-23T11:04:46;3.35;;;1.60;;
72037;SDS011;59900;50.788;12.904;2024-03-23T11:09:49;2.72;;;1.52;;
72037;SDS011;59900;50.788;12.904;2024-03-23T11:14:49;4.43;;;1.92;;
72037;SDS011;59900;50.788;12.904;2024-03-23T11:17:19;2.75;;;1.30;;
72037;SDS011;59900;50.788;12.904;2024-03-23T11:19:55;3.77;;;1.90;;
72037;SDS011;59900;50.788;12.904;2024-03-23T11:25:02;3.00;;;1.83;;
72037;SDS011;59900;50.788;12.904;2024-03-23T11:27:27;3.10;;;1.90;;
72037;SDS011;59900;50.788;12.904;2024-03-23T11:29:52;3.67;;;1.80;;
72037;SDS011;59900;50.788;12.904;2024-03-23T11:32:18;5.83;;;2.30;;
72037;SDS011;59900;50.788;12.904;2024-03-23T11:34:43;3.37;;;2.00;;
72037;SDS011;59900;50.788;12.904;2024-03-23T11:37:08;3.67;;;2.10;;
72037;SDS011;59900;50.788;12.904;2024-03-23T11:39:33;2.83;;;1.77;;
72037;SDS011;59900;50.788;12.904;2024-03-23T11:41:59;3.20;;;1.80;;
72037;SDS011;59900;50.788;12.904;2024-03-23T11:44:27;4.07;;;1.90;;
72037;SDS011;59900;50.788;12.904;2024-03-23T11:46:52;2.58;;;1.50;;
72037;SDS011;59900;50.788;12.904;2024-03-23T11:49:22;3.25;;;1.98;;
72037;SDS011;59900;50.788;12.904;2024-03-23T11:51:48;3.43;;;1.80;;
72037;SDS011;59900;50.788;12.904;2024-03-23T11:54:13;3.78;;;2.00;;
72037;SDS011;59900;50.788;12.904;2024-03-23T11:56:38;2.97;;;1.67;;
72037;SDS011;59900;50.788;12.904;2024-03-23T11:59:04;2.57;;;1.63;;
72037;SDS011;59900;50.788;12.904;2024-03-23T12:01:29;2.60;;;1.70;;
72037;SDS011;59900;50.788;12.904;2024-03-23T12:03:54;3.70;;;2.17;;
72037;SDS011;59900;50.788;12.904;2024-03-23T12:06:20;3.13;;;1.53;;
72037;SDS011;59900;50.788;12.904;2024-03-23T12:08:45;3.80;;;1.77;;
72037;SDS011;59900;50.788;12.904;2024-03-23T12:11:11;2.95;;;1.40;;
72037;SDS011;59900;50.788;12.904;2024-03-23T12:13:38;3.80;;;2.20;;
72037;SDS011;59900;50.788;12.904;2024-03-23T12:18:39;2.28;;;1.52;;
72037;SDS011;59900;50.788;12.904;2024-03-23T12:21:05;2.55;;;1.67;;
72037;SDS011;59900;50.788;12.904;2024-03-23T12:23:30;3.30;;;2.00;;
72037;SDS011;59900;50.788;12.904;2024-03-23T12:25:56;2.83;;;1.60;;
72037;SDS011;59900;50.788;12.904;2024-03-23T12:28:21;2.80;;;1.60;;
72037;SDS011;59900;50.788;12.904;2024-03-23T12:30:46;2.57;;;1.40;;
72037;SDS011;59900;50.788;12.904;2024-03-23T12:33:11;2.77;;;1.53;;
72037;SDS011;59900;50.788;12.904;2024-03-23T12:35:37;2.83;;;1.73;;
72037;SDS011;59900;50.788;12.904;2024-03-23T12:38:02;4.07;;;1.90;;
72037;SDS011;59900;50.788;12.904;2024-03-23T12:40:27;3.03;;;1.87;;
72037;SDS011;59900;50.788;12.904;2024-03-23T12:42:53;4.93;;;2.13;;
72037;SDS011;59900;50.788;12.904;2024-03-23T12:45:19;3.30;;;1.75;;
72037;SDS011;59900;50.788;12.904;2024-03-23T12:47:44;4.17;;;2.10;;
72037;SDS011;59900;50.788;12.904;2024-03-23T12:50:09;5.23;;;2.43;;
72037;SDS011;59900;50.788;12.904;2024-03-23T12:52:36;3.72;;;1.88;;
72037;SDS011;59900;50.788;12.904;2024-03-23T12:55:02;3.63;;;1.83;;
72037;SDS011;59900;50.788;12.904;2024-03-23T12:57:28;3.73;;;1.70;;
72037;SDS011;59900;50.788;12.904;2024-03-23T12:59:53;3.40;;;1.70;;
72037;SDS011;59900;50.788;12.904;2024-03-23T13:02:19;3.72;;;2.00;;
72037;SDS011;59900;50.788;12.904;2024-03-23T13:04:46;4.50;;;2.40;;
72037;SDS011;59900;50.788;12.904;2024-03-23T13:07:12;4.23;;;2.00;;
72037;SDS011;59900;50.788;12.904;2024-03-23T13:09:37;13.60;;;3.10;;
72037;SDS011;59900;50.788;12.904;2024-03-23T13:12:03;4.80;;;2.43;;
72037;SDS011;59900;50.788;12.904;2024-03-23T13:14:28;3.77;;;2.00;;
72037;SDS011;59900;50.788;12.904;2024-03-23T13:16:53;3.57;;;1.90;;
72037;SDS011;59900;50.788;12.904;2024-03-23T13:19:18;5.33;;;2.43;;
72037;SDS011;59900;50.788;12.904;2024-03-23T13:21:45;5.68;;;2.40;;
72037;SDS011;59900;50.788;12.904;2024-03-23T13:24:10;4.77;;;2.23;;
72037;SDS011;59900;50.788;12.904;2024-03-23T13:26:35;6.13;;;2.30;;
72037;SDS011;59900;50.788;12.904;2024-03-23T13:29:00;4.93;;;2.40;;
72037;SDS011;59900;50.788;12.904;2024-03-23T13:31:26;6.33;;;2.13;;
72037;SDS011;59900;50.788;12.904;2024-03-23T13:33:51;5.67;;;2.27;;
72037;SDS011;59900;50.788;12.904;2024-03-23T13:36:16;5.17;;;2.13;;
72037;SDS011;59900;50.788;12.904;2024-03-23T13:38:41;8.87;;;2.23;;
72037;SDS011;59900;50.788;12.904;2024-03-23T13:41:07;6.47;;;2.83;;
72037;SDS011;59900;50.788;12.904;2024-03-23T13:43:33;5.43;;;2.08;;
72037;SDS011;59900;50.788;12.904;2024-03-23T13:45:59;6.13;;;2.50;;
72037;SDS011;59900;50.788;12.904;2024-03-23T13:48:25;7.37;;;2.10;;
72037;SDS011;59900;50.788;12.904;2024-03-23T13:51:04;7.07;;;2.90;;
72037;SDS011;59900;50.788;12.904;2024-03-23T13:53:30;6.65;;;2.40;;
72037;SDS011;59900;50.788;12.904;2024-03-23T13:55:57;9.63;;;2.80;;
72037;SDS011;59900;50.788;12.904;2024-03-23T13:58:22;7.43;;;2.40;;
72037;SDS011;59900;50.788;12.904;2024-03-23T14:00:51;8.20;;;2.83;;
72037;SDS011;59900;50.788;12.904;2024-03-23T14:03:16;8.77;;;2.80;;
72037;SDS011;59900;50.788;12.904;2024-03-23T14:05:45;4.82;;;2.47;;
72037;SDS011;59900;50.788;12.904;2024-03-23T14:08:12;8.73;;;2.33;;
72037;SDS011;59900;50.788;12.904;2024-03-23T14:10:40;7.57;;;2.70;;
72037;SDS011;59900;50.788;12.904;2024-03-23T14:13:06;6.80;;;2.47;;
72037;SDS011;59900;50.788;12.904;2024-03-23T14:15:31;6.83;;;3.07;;
72037;SDS011;59900;50.788;12.904;2024-03-23T14:17:57;7.53;;;2.50;;
72037;SDS011;59900;50.788;12.904;2024-03-23T14:20:22;6.25;;;2.42;;
72037;SDS011;59900;50.788;12.904;2024-03-23T14:22:48;7.60;;;3.10;;
72037;SDS011;59900;50.788;12.904;2024-03-23T14:25:14;7.38;;;2.95;;
72037;SDS011;59900;50.788;12.904;2024-03-23T14:27:39;6.27;;;2.70;;
72037;SDS011;59900;50.788;12.904;2024-03-23T14:30:05;6.57;;;2.90;;
72037;SDS011;59900;50.788;12.904;2024-03-23T14:32:30;7.80;;;3.13;;
72037;SDS011;59900;50.788;12.904;2024-03-23T14:34:59;8.00;;;3.17;;
72037;SDS011;59900;50.788;12.904;2024-03-23T14:37:28;7.10;;;2.80;;
72037;SDS011;59900;50.788;12.904;2024-03-23T14:39:55;7.20;;;3.03;;
72037;SDS011;59900;50.788;12.904;2024-03-23T14:42:21;8.40;;;3.53;;
72037;SDS011;59900;50.788;12.904;2024-03-23T14:44:46;6.67;;;2.90;;
72037;SDS011;59900;50.788;12.904;2024-03-23T14:47:11;8.20;;;2.83;;
72037;SDS011;59900;50.788;12.904;2024-03-23T14:49:37;9.43;;;2.93;;
72037;SDS011;59900;50.788;12.904;2024-03-23T14:52:03;6.93;;;2.93;;
72037;SDS011;59900;50.788;12.904;2024-03-23T14:54:28;7.22;;;3.15;;
72037;SDS011;59900;50.788;12.904;2024-03-23T14:56:53;8.43;;;2.70;;
72037;SDS011;59900;50.788;12.904;2024-03-23T14:59:19;7.33;;;3.17;;
72037;SDS011;59900;50.788;12.904;2024-03-23T15:01:44;7.30;;;3.27;;
72037;SDS011;59900;50.788;12.904;2024-03-23T15:04:10;7.07;;;3.33;;
72037;SDS011;59900;50.788;12.904;2024-03-23T15:06:35;8.50;;;2.93;;
72037;SDS011;59900;50.788;12.904;2024-03-23T15:09:01;9.75;;;3.42;;
72037;SDS011;59900;50.788;12.904;2024-03-23T15:11:26;6.47;;;2.50;;
72037;SDS011;59900;50.788;12.904;2024-03-23T15:13:51;6.83;;;2.77;;
72037;SDS011;59900;50.788;12.904;2024-03-23T15:16:17;6.00;;;2.60;;
72037;SDS011;59900;50.788;12.904;2024-03-23T15:18:45;6.72;;;2.50;;
72037;SDS011;59900;50.788;12.904;2024-03-23T15:21:10;4.83;;;2.33;;
72037;SDS011;59900;50.788;12.904;2024-03-23T15:23:36;5.35;;;2.35;;
72037;SDS011;59900;50.788;12.904;2024-03-23T15:26:02;6.17;;;2.20;;